Time;durP1;ratioP1;P1;durP2;ratioP2;P2;SDS_P1;SDS_P2;PMS_P1;PMS_P2;Temp;Humidity;BMP_temperature;BMP_pressure;BME280_temperature;BME280_humidity;BME280_pressure;Samples;Min_cycle;Max_cycle;Signal;HPM_P1;HPM_P2
2022/07/13 00:00:26;;;;;;;6.55;5.95;;;;;;;19.29;100.00;165614.72;4972301;28;20043;-64
2022/07/13 00:02:52;;;;;;;11.32;6.22;;;;;;;19.29;100.00;165614.72;4974105;28;20054;-64
2022/07/13 00:05:17;;;;;;;8.93;8.07;;;;;;;19.24;100.00;165601.16;4977556;28;20046;-64
2022/07/13 00:07:43;;;;;;;13.05;7.57;;;;;;;19.21;100.00;165593.00;4973997;28;20066;-65
2022/07/13 00:10:08;;;;;;;7.40;6.78;;;;;;;19.12;100.00;165568.59;4972382;28;20047;-64
2022/07/13 00:12:33;;;;;;;11.82;8.05;;;;;;;19.05;100.00;165550.97;4988176;28;20389;-65
2022/07/13 00:14:59;;;;;;;8.63;7.80;;;;;;;18.91;100.00;165514.28;4991361;28;20398;-64
2022/07/13 00:17:24;;;;;;;10.55;9.32;;;;;;;18.90;100.00;165511.56;4992849;28;20031;-65
2022/07/13 00:19:49;;;;;;;7.45;6.72;;;;;;;18.91;100.00;165514.28;4991407;28;20532;-65
2022/07/13 00:22:15;;;;;;;8.00;6.75;;;;;;;18.93;100.00;165519.78;4986255;28;20037;-64
2022/07/13 00:24:40;;;;;;;8.18;7.35;;;;;;;19.20;100.00;165590.28;4985361;28;20081;-64
2022/07/13 00:27:06;;;;;;;7.93;7.25;;;;;;;19.40;100.00;165641.88;4973017;28;20029;-63
2022/07/13 00:29:31;;;;;;;8.43;7.55;;;;;;;19.52;100.00;165673.03;4972133;28;20560;-64
2022/07/13 00:31:57;;;;;;;8.75;7.88;;;;;;;19.54;100.00;165679.84;4986302;28;20034;-62
2022/07/13 00:34:22;;;;;;;9.35;7.55;;;;;;;19.49;100.00;165667.66;4992271;28;20022;-63
2022/07/13 00:36:47;;;;;;;8.95;8.07;;;;;;;19.44;100.00;165654.03;4991340;28;20046;-63
2022/07/13 00:39:13;;;;;;;8.07;7.45;;;;;;;19.36;100.00;165631.00;4992196;28;20026;-63
2022/07/13 00:41:48;;;;;;;12.70;8.10;;;;;;;19.27;100.00;165609.28;4980137;28;20039;-63
2022/07/13 00:44:15;;;;;;;8.88;6.55;;;;;;;19.19;100.00;165587.56;4972910;28;20054;-63
2022/07/13 00:46:44;;;;;;;7.93;6.88;;;;;;;19.32;100.00;165622.84;4971885;28;20042;-63
2022/07/13 00:49:10;;;;;;;6.57;5.90;;;;;;;19.36;100.00;165632.31;4976010;28;20029;-63
2022/07/13 00:51:37;;;;;;;7.22;6.55;;;;;;;19.38;100.00;165636.44;4981287;28;20081;-63
2022/07/13 00:54:03;;;;;;;13.32;8.45;;;;;;;19.41;100.00;165644.53;4972737;28;20018;-63
2022/07/13 00:56:29;;;;;;;7.50;6.90;;;;;;;19.43;100.00;165651.38;4981161;28;20179;-64
2022/07/13 00:58:57;;;;;;;7.43;6.50;;;;;;;19.33;100.00;165625.56;4986847;28;20077;-65
2022/07/13 01:01:22;;;;;;;7.78;7.00;;;;;;;19.44;100.00;165652.72;4979049;28;20099;-65
2022/07/13 01:03:48;;;;;;;7.70;7.10;;;;;;;19.27;100.00;165609.28;4990413;28;20038;-65
2022/07/13 01:06:14;;;;;;;8.85;7.32;;;;;;;19.36;100.00;165632.31;4990328;28;20521;-64
2022/07/13 01:08:39;;;;;;;8.93;6.97;;;;;;;19.33;100.00;165625.56;4992157;28;20429;-62
2022/07/13 01:11:05;;;;;;;7.82;6.88;;;;;;;19.27;100.00;165609.28;4984081;28;20049;-63
2022/07/13 01:13:31;;;;;;;6.55;5.90;;;;;;;19.27;100.00;165609.28;4972821;28;20399;-62
2022/07/13 01:15:56;;;;;;;7.50;6.80;;;;;;;19.32;100.00;165622.84;4976567;28;20046;-62
2022/07/13 01:18:22;;;;;;;8.13;7.30;;;;;;;19.40;100.00;165641.88;4991508;28;20070;-62
2022/07/13 01:20:47;;;;;;;7.95;6.22;;;;;;;19.47;100.00;165660.88;4989844;28;20509;-62
2022/07/13 01:23:16;;;;;;;9.07;6.43;;;;;;;19.52;100.00;165674.41;4991820;28;20109;-62
2022/07/13 01:25:42;;;;;;;7.50;6.80;;;;;;;19.62;100.00;165701.53;4990292;28;20035;-62
2022/07/13 01:28:08;;;;;;;7.45;6.85;;;;;;;19.63;100.00;165704.25;4991624;28;20053;-62
2022/07/13 01:30:34;;;;;;;13.50;6.40;;;;;;;19.60;100.00;165696.13;4989783;28;20038;-62
2022/07/13 01:33:00;;;;;;;8.57;6.85;;;;;;;19.57;100.00;165687.97;4972191;28;20048;-63
2022/07/13 01:35:26;;;;;;;8.82;7.07;;;;;;;19.52;100.00;165674.41;4970827;28;20062;-62
2022/07/13 01:37:53;;;;;;;9.10;6.82;;;;;;;19.45;100.00;165656.75;4972398;28;20069;-62
2022/07/13 01:40:18;;;;;;;7.30;6.68;;;;;;;19.44;100.00;165652.72;4970685;28;20062;-61
2022/07/13 01:42:48;;;;;;;8.93;6.63;;;;;;;19.41;100.00;165644.53;4972727;28;20027;-62
2022/07/13 01:45:16;;;;;;;7.93;6.88;;;;;;;19.38;100.00;165636.44;4970883;28;20086;-62
2022/07/13 01:47:43;;;;;;;7.37;6.60;;;;;;;19.36;100.00;165631.00;4975334;28;20486;-62
2022/07/13 01:50:11;;;;;;;6.47;5.93;;;;;;;19.36;100.00;165631.00;4985727;28;20070;-62
2022/07/13 01:52:37;;;;;;;8.18;7.45;;;;;;;19.33;100.00;165625.56;4990628;28;20038;-63
2022/07/13 01:55:03;;;;;;;7.82;7.07;;;;;;;19.30;100.00;165617.44;4978480;28;20043;-62
2022/07/13 01:57:28;;;;;;;12.82;7.50;;;;;;;19.26;100.00;165606.56;4970687;28;20027;-63
2022/07/13 02:00:02;;;;;;;8.57;7.05;;;;;;;19.22;100.00;165595.72;4983337;28;20494;-63
2022/07/13 02:02:27;;;;;;;9.30;7.75;;;;;;;19.20;100.00;165588.94;4989669;28;20057;-62
2022/07/13 02:04:54;;;;;;;7.93;7.22;;;;;;;19.10;100.00;165564.53;4989523;28;20046;-62
2022/07/13 02:07:21;;;;;;;7.88;7.15;;;;;;;19.08;100.00;165557.75;4991459;28;20039;-63
2022/07/13 02:09:46;;;;;;;9.13;7.75;;;;;;;19.02;100.00;165544.16;4990206;28;20039;-63
2022/07/13 02:12:11;;;;;;;9.32;7.68;;;;;;;18.77;100.00;165477.66;4976447;28;20035;-63
2022/07/13 02:14:37;;;;;;;7.85;7.15;;;;;;;18.89;100.00;165508.84;4982852;28;20026;-63
2022/07/13 02:17:02;;;;;;;10.90;8.48;;;;;;;18.85;100.00;165499.34;4974864;28;20026;-64
2022/07/13 02:19:27;;;;;;;13.95;7.70;;;;;;;18.79;100.00;165483.09;4986749;28;20026;-63
2022/07/13 02:21:53;;;;;;;8.77;7.82;;;;;;;18.76;100.00;165474.97;4979888;28;20038;-63
2022/07/13 02:24:18;;;;;;;11.10;7.95;;;;;;;18.74;100.00;165469.53;4975830;28;20019;-64
2022/07/13 02:26:43;;;;;;;8.15;7.18;;;;;;;18.67;100.00;165451.88;4974327;28;20039;-63
2022/07/13 02:29:09;;;;;;;7.60;6.95;;;;;;;18.64;100.00;165443.78;4974072;28;20059;-63
2022/07/13 02:31:34;;;;;;;9.48;8.50;;;;;;;18.66;100.00;165449.16;4983394;28;20560;-63
2022/07/13 02:34:00;;;;;;;7.78;7.07;;;;;;;18.63;100.00;165441.06;4994887;28;20377;-63
2022/07/13 02:36:25;;;;;;;9.05;7.05;;;;;;;18.76;100.00;165474.97;4993006;28;20441;-63
2022/07/13 02:38:51;;;;;;;8.00;7.30;;;;;;;18.82;100.00;165489.84;4995132;28;20073;-62
2022/07/13 02:41:16;;;;;;;6.95;6.25;;;;;;;18.89;100.00;165508.84;4978835;28;20058;-63
2022/07/13 02:43:41;;;;;;;8.18;7.35;;;;;;;18.91;100.00;165514.28;4975516;28;20027;-63
2022/07/13 02:46:07;;;;;;;8.02;7.35;;;;;;;18.94;100.00;165521.09;4973907;28;20039;-63
2022/07/13 02:48:33;;;;;;;7.45;6.70;;;;;;;18.97;100.00;165530.59;4975243;28;20035;-63
2022/07/13 02:50:58;;;;;;;8.95;7.18;;;;;;;18.98;100.00;165533.31;4977275;28;20560;-63
2022/07/13 02:53:24;;;;;;;7.38;6.60;;;;;;;18.98;100.00;165533.31;4994719;28;20037;-63
2022/07/13 02:55:49;;;;;;;8.90;6.57;;;;;;;18.96;100.00;165527.88;4979169;28;20387;-63
2022/07/13 02:58:14;;;;;;;12.60;6.80;;;;;;;18.83;100.00;165492.56;4975086;28;20035;-63
2022/07/13 03:00:40;;;;;;;8.38;6.25;;;;;;;18.93;100.00;165518.38;4974734;28;20046;-63
2022/07/13 03:03:05;;;;;;;7.43;6.72;;;;;;;18.92;100.00;165517.06;4994026;28;20026;-63
2022/07/13 03:05:30;;;;;;;9.02;6.55;;;;;;;18.74;100.00;165468.16;4991126;28;20053;-63
2022/07/13 03:07:56;;;;;;;6.90;6.25;;;;;;;18.85;100.00;165498.00;4975261;28;20030;-63
2022/07/13 03:10:21;;;;;;;7.28;6.57;;;;;;;18.78;100.00;165480.38;4974460;28;20054;-63
2022/07/13 03:12:47;;;;;;;9.25;6.20;;;;;;;18.78;100.00;165480.38;4974079;28;20030;-64
2022/07/13 03:15:12;;;;;;;8.35;7.30;;;;;;;18.77;100.00;165476.31;4973371;28;20596;-60
2022/07/13 03:17:40;;;;;;;6.53;5.82;;;;;;;18.71;100.00;165462.75;4974604;28;20023;-60
2022/07/13 03:20:06;;;;;;;9.38;6.70;;;;;;;18.70;100.00;165460.03;4973352;28;20050;-64
2022/07/13 03:22:31;;;;;;;6.55;5.45;;;;;;;18.68;100.00;165454.59;4975090;28;20030;-63
2022/07/13 03:24:56;;;;;;;5.78;5.28;;;;;;;18.72;100.00;165464.09;4978819;28;20038;-63
2022/07/13 03:27:22;;;;;;;6.97;6.38;;;;;;;18.74;100.00;165468.16;4975355;28;20031;-63
2022/07/13 03:29:47;;;;;;;6.15;5.55;;;;;;;18.80;100.00;165484.47;4973373;28;20046;-62
2022/07/13 03:32:12;;;;;;;5.80;4.57;;;;;;;18.74;100.00;165469.53;4986497;28;20026;-63
2022/07/13 03:34:38;;;;;;;6.25;5.65;;;;;;;18.76;100.00;165473.59;4991521;28;20022;-62
2022/07/13 03:37:03;;;;;;;5.80;5.07;;;;;;;18.76;100.00;165473.59;4980196;28;20027;-62
2022/07/13 03:39:28;;;;;;;6.47;5.28;;;;;;;18.77;100.00;165476.31;4978089;28;20022;-63
2022/07/13 03:41:54;;;;;;;5.00;4.55;;;;;;;18.65;100.00;165445.13;4993091;28;20018;-62
2022/07/13 03:44:19;;;;;;;4.50;4.10;;;;;;;18.56;100.00;165422.06;4993528;28;20022;-62
2022/07/13 03:46:44;;;;;;;5.25;4.78;;;;;;;18.83;100.00;165492.56;4992078;28;20498;-62
2022/07/13 03:49:10;;;;;;;6.38;4.55;;;;;;;18.82;100.00;165489.84;4993603;28;20386;-63
2022/07/13 03:51:38;;;;;;;4.78;4.38;;;;;;;18.86;100.00;165500.72;4982932;28;20039;-62
2022/07/13 03:54:03;;;;;;;5.72;4.88;;;;;;;18.87;100.00;165503.47;4993162;28;20073;-63
2022/07/13 03:56:29;;;;;;;5.53;5.03;;;;;;;18.87;100.00;165503.47;4989320;28;20505;-63
2022/07/13 03:58:55;;;;;;;5.07;3.25;;;;;;;18.97;100.00;165529.28;4975667;28;20031;-63
2022/07/13 04:01:20;;;;;;;4.35;3.55;;;;;;;19.11;100.00;165565.84;4976709;28;20457;-63
2022/07/13 04:03:46;;;;;;;6.13;3.15;;;;;;;19.21;100.00;165591.69;4992218;28;20034;-63
2022/07/13 04:06:12;;;;;;;4.45;3.80;;;;;;;19.29;100.00;165614.72;4990029;28;20100;-64
2022/07/13 04:08:37;;;;;;;3.35;2.67;;;;;;;19.32;100.00;165622.84;4993120;28;20150;-64
2022/07/13 04:11:02;;;;;;;3.15;2.95;;;;;;;19.34;100.00;165628.28;4989256;28;20053;-65
2022/07/13 04:13:28;;;;;;;3.20;2.90;;;;;;;19.40;100.00;165641.88;4980761;28;20048;-59
2022/07/13 04:15:53;;;;;;;3.45;3.15;;;;;;;19.46;100.00;165658.16;4979771;28;20042;-61
2022/07/13 04:18:18;;;;;;;5.18;2.47;;;;;;;19.50;100.00;165668.97;4974610;28;20035;-61
2022/07/13 04:20:44;;;;;;;7.38;3.85;;;;;;;19.59;100.00;165693.41;4974343;28;20041;-61
2022/07/13 04:23:09;;;;;;;7.75;3.60;;;;;;;19.65;100.00;165709.69;4979192;28;20030;-61
2022/07/13 04:25:34;;;;;;;5.72;3.22;;;;;;;19.72;100.00;165725.97;4985203;28;20045;-61
2022/07/13 04:28:00;;;;;;;4.10;2.40;;;;;;;19.79;100.00;165746.34;4986373;28;20101;-61
2022/07/13 04:30:25;;;;;;;3.08;2.88;;;;;;;19.84;100.00;165758.63;4973699;28;20046;-61
2022/07/13 04:32:50;;;;;;;3.90;3.10;;;;;;;19.87;100.00;165766.72;4983903;28;20038;-61
2022/07/13 04:35:16;;;;;;;7.72;4.35;;;;;;;19.94;100.00;165785.72;4981477;28;20042;-61
2022/07/13 04:37:41;;;;;;;3.22;2.90;;;;;;;19.98;100.00;165795.22;4982865;28;20035;-61
2022/07/13 04:40:07;;;;;;;5.45;3.60;;;;;;;20.05;100.00;165812.88;4971345;28;20046;-63
2022/07/13 04:42:33;;;;;;;6.05;3.08;;;;;;;20.10;100.00;165826.44;4987840;28;20026;-64
2022/07/13 04:44:58;;;;;;;3.95;3.60;;;;;;;20.11;100.00;165829.16;4981408;28;20057;-63
2022/07/13 04:47:23;;;;;;;3.10;2.80;;;;;;;20.12;100.00;165831.88;4995097;28;20022;-62
2022/07/13 04:49:49;;;;;;;4.18;3.42;;;;;;;20.12;100.00;165831.88;4991333;28;20046;-63
2022/07/13 04:52:14;;;;;;;3.40;2.88;;;;;;;20.14;100.00;165837.31;4991696;28;20034;-62
2022/07/13 04:54:39;;;;;;;6.85;3.40;;;;;;;20.19;100.00;165850.88;4988885;28;20023;-63
2022/07/13 04:57:05;;;;;;;5.10;3.17;;;;;;;20.22;100.00;165859.00;4984245;28;20549;-63
2022/07/13 04:59:30;;;;;;;5.80;3.28;;;;;;;20.24;100.00;165863.09;4976364;28;20517;-62
2022/07/13 05:01:55;;;;;;;7.88;3.67;;;;;;;20.27;100.00;165872.63;4973165;28;20030;-63
2022/07/13 05:04:21;;;;;;;5.25;3.63;;;;;;;20.31;100.00;165880.72;4980422;28;20053;-63
2022/07/13 05:06:46;;;;;;;4.78;3.92;;;;;;;20.32;100.00;165883.44;4996603;28;20042;-62
2022/07/13 05:09:12;;;;;;;4.72;3.75;;;;;;;20.39;100.00;165902.44;5001225;28;20393;-64
2022/07/13 05:11:39;;;;;;;7.15;3.42;;;;;;;20.42;100.00;165911.94;4998919;28;20057;-64
2022/07/13 05:14:05;;;;;;;6.07;3.83;;;;;;;20.42;100.00;165911.94;4993893;28;20019;-64
2022/07/13 05:16:30;;;;;;;4.18;3.17;;;;;;;20.32;100.00;165883.44;4999571;28;20042;-64
2022/07/13 05:18:57;;;;;;;4.20;2.85;;;;;;;20.55;100.00;165945.91;4995448;28;20478;-64
2022/07/13 05:21:22;;;;;;;3.85;3.38;;;;;;;20.58;100.00;165954.06;4998364;28;20405;-64
2022/07/13 05:23:47;;;;;;;8.75;4.57;;;;;;;20.63;100.00;165964.91;4997698;28;20030;-64
2022/07/13 05:26:13;;;;;;;7.10;3.67;;;;;;;20.68;100.00;165978.47;4994782;28;20049;-64
2022/07/13 05:28:38;;;;;;;10.05;5.05;;;;;;;20.77;100.00;166002.97;4999804;28;20068;-64
2022/07/13 05:31:04;;;;;;;8.20;4.72;;;;;;;20.85;100.00;166023.34;4993919;28;20049;-64
2022/07/13 05:33:29;;;;;;;4.78;4.35;;;;;;;20.93;100.00;166045.03;5003216;28;20029;-64
2022/07/13 05:35:55;;;;;;;8.68;3.78;;;;;;;21.02;100.00;166068.16;4986290;28;21485;-64
2022/07/13 05:38:20;;;;;;;7.05;3.80;;;;;;;21.13;100.00;166098.00;4993429;28;20048;-64
2022/07/13 05:40:46;;;;;;;5.75;4.45;;;;;;;21.19;100.00;166114.28;4995641;28;20088;-64
2022/07/13 05:43:11;;;;;;;9.13;5.25;;;;;;;21.23;100.00;166125.19;5009665;28;20033;-64
2022/07/13 05:45:37;;;;;;;10.43;4.00;;;;;;;21.31;100.00;166144.19;5000510;28;20034;-64
2022/07/13 05:48:02;;;;;;;6.25;4.00;;;;;;;21.39;100.00;166165.94;4982221;28;20030;-64
2022/07/13 05:50:28;;;;;;;7.55;4.18;;;;;;;21.33;100.00;166149.63;4981107;28;20041;-65
2022/07/13 05:52:53;;;;;;;7.88;4.35;;;;;;;21.50;100.00;166195.78;4984825;28;20026;-64
2022/07/13 05:55:18;;;;;;;4.20;3.80;;;;;;;21.52;100.00;166201.22;4969880;28;20050;-64
2022/07/13 05:57:44;;;;;;;7.43;4.20;;;;;;;21.61;100.00;166223.00;4979973;28;20022;-64
2022/07/13 06:00:11;;;;;;;6.90;4.70;;;;;;;21.61;100.00;166223.00;4976911;28;20061;-64
2022/07/13 06:02:39;;;;;;;6.10;4.10;;;;;;;21.68;100.00;166243.38;4994947;28;20037;-64
2022/07/13 06:05:04;;;;;;;6.50;4.05;;;;;;;21.71;100.00;166250.16;4987576;28;20042;-64
2022/07/13 06:07:30;;;;;;;8.75;5.65;;;;;;;21.71;100.00;166250.16;4979587;28;20406;-64
2022/07/13 06:09:58;;;;;;;10.38;4.35;;;;;;;21.75;100.00;166259.66;4987704;28;20077;-64
2022/07/13 06:12:23;;;;;;;;;;;;;;;21.76;100.00;166262.38;4978168;28;20026;-64
2022/07/13 06:14:49;;;;;;;8.20;4.45;;;;;;;21.78;100.00;166269.16;4977377;28;20005;-64
2022/07/13 06:17:14;;;;;;;11.95;4.10;;;;;;;21.78;100.00;166267.84;4981070;28;20058;-64
2022/07/13 06:19:39;;;;;;;7.15;5.28;;;;;;;21.89;100.00;166296.34;4991077;28;20037;-64
2022/07/13 06:22:05;;;;;;;6.00;4.80;;;;;;;21.87;100.00;166293.63;4989932;28;20027;-64
2022/07/13 06:24:30;;;;;;;5.53;4.10;;;;;;;21.99;100.00;166323.53;4992816;28;20030;-61
2022/07/13 06:26:55;;;;;;;7.75;4.90;;;;;;;22.05;100.00;166339.84;4989098;28;20031;-60
2022/07/13 06:29:21;;;;;;;12.00;4.05;;;;;;;22.13;100.00;166361.59;4986361;28;20046;-60
2022/07/13 06:31:48;;;;;;;12.20;3.92;;;;;;;22.16;100.00;166369.72;4988315;28;20046;-63
2022/07/13 06:34:13;;;;;;;7.55;5.25;;;;;;;22.29;100.00;166402.34;4992356;28;20030;-63
2022/07/13 06:36:39;;;;;;;6.50;4.70;;;;;;;22.35;100.00;166418.66;4985998;28;20037;-63
2022/07/13 06:39:04;;;;;;;7.88;4.38;;;;;;;22.35;100.00;166418.66;4992477;28;20073;-64
2022/07/13 06:41:29;;;;;;;11.98;6.32;;;;;;;22.43;100.00;166440.44;4989231;28;20085;-63
2022/07/13 06:43:55;;;;;;;9.23;4.75;;;;;;;22.53;100.00;166464.88;4990925;28;20049;-62
2022/07/13 06:46:20;;;;;;;10.32;4.43;;;;;;;22.55;100.00;166470.31;4985451;28;20031;-63
2022/07/13 06:48:45;;;;;;;5.93;4.47;;;;;;;22.76;100.00;166527.38;4988098;28;20022;-62
2022/07/13 06:51:11;;;;;;;12.55;4.70;;;;;;;22.96;100.00;166580.41;4993982;28;20027;-62
2022/07/13 06:53:36;;;;;;;5.43;4.93;;;;;;;23.19;100.00;166640.25;4977953;28;20027;-62
2022/07/13 06:56:02;;;;;;;15.20;5.20;;;;;;;23.31;100.00;166671.53;4985142;28;20413;-62
2022/07/13 06:58:30;;;;;;;8.68;4.57;;;;;;;23.33;100.00;166676.97;4996746;28;20034;-61
2022/07/13 07:00:55;;;;;;;;;;;;;;;23.47;100.00;166713.66;4980267;28;20026;-61
2022/07/13 07:03:21;;;;;;;6.60;5.97;;;;;;;23.48;100.00;166715.03;4990840;28;19917;-61
2022/07/13 07:05:46;;;;;;;7.38;5.00;;;;;;;23.38;100.00;166690.56;4991059;28;20015;-62
2022/07/13 07:08:11;;;;;;;7.10;5.88;;;;;;;23.30;100.00;166668.81;4980402;28;20058;-61
2022/07/13 07:10:37;;;;;;;5.82;5.13;;;;;;;23.40;100.00;166696.00;4977333;28;20046;-60
2022/07/13 07:13:03;;;;;;;12.07;5.57;;;;;;;23.40;100.00;166694.63;4991795;28;20118;-61
2022/07/13 07:15:28;;;;;;;6.72;6.07;;;;;;;23.51;100.00;166723.19;4992605;28;20015;-61
2022/07/13 07:17:54;;;;;;;7.45;5.55;;;;;;;23.64;100.00;166757.19;4992825;28;20030;-61
2022/07/13 07:20:19;;;;;;;10.75;6.65;;;;;;;23.72;100.00;166780.28;4992764;28;20030;-61
2022/07/13 07:22:46;;;;;;;17.27;5.93;;;;;;;23.88;100.00;166821.06;4981749;28;20022;-61
2022/07/13 07:25:12;;;;;;;10.07;6.22;;;;;;;23.92;100.00;166831.97;4981404;28;20026;-61
2022/07/13 07:27:41;;;;;;;22.38;7.05;;;;;;;23.96;100.00;166841.56;4988849;28;20642;-61
2022/07/13 07:30:07;;;;;;;7.57;5.00;;;;;;;24.33;100.00;166940.81;4976219;28;20125;-61
2022/07/13 07:32:32;;;;;;;6.03;5.43;;;;;;;-146.58;100.00;69501.63;4978020;28;20076;-61
2022/07/13 07:34:58;;;;;;;9.60;6.07;;;;;;;-146.58;100.00;69501.63;4993377;28;20029;-61
2022/07/13 07:37:23;;;;;;;19.38;7.18;;;;;;;-146.58;100.00;69501.63;4982339;28;20033;-61
2022/07/13 07:39:49;;;;;;;12.43;6.57;;;;;;;-146.58;100.00;69501.63;4986171;28;20100;-61
2022/07/13 07:42:14;;;;;;;10.15;6.38;;;;;;;-146.58;100.00;69501.63;4974435;28;20526;-61
2022/07/13 07:44:40;;;;;;;16.85;7.45;;;;;;;25.20;100.00;167169.44;4973900;28;20023;-61
2022/07/13 07:47:05;;;;;;;9.85;7.57;;;;;;;25.16;100.00;167159.91;4973580;28;20395;-61
2022/07/13 07:49:30;;;;;;;6.43;5.55;;;;;;;25.27;100.00;167187.09;4973565;28;20023;-61
2022/07/13 07:51:56;;;;;;;15.85;6.03;;;;;;;25.34;100.00;167206.13;4980629;28;20049;-61
2022/07/13 07:54:21;;;;;;;14.27;7.00;;;;;;;25.51;100.00;167251.09;4975870;28;20023;-61
2022/07/13 07:56:48;;;;;;;15.63;6.32;;;;;;;25.73;100.00;167308.25;4988690;28;20030;-61
2022/07/13 07:59:14;;;;;;;12.82;6.38;;;;;;;25.99;100.00;167377.66;4993149;28;20029;-61
2022/07/13 08:01:40;;;;;;;6.88;6.15;;;;;;;26.05;100.00;167392.63;4991786;28;20564;-61
2022/07/13 08:04:05;;;;;;;7.05;6.07;;;;;;;26.10;100.00;167406.34;4978334;28;20026;-61
2022/07/13 08:06:30;;;;;;;7.72;6.47;;;;;;;26.19;100.00;167430.81;4981414;28;20018;-61
2022/07/13 08:08:56;;;;;;;6.95;5.90;;;;;;;26.23;100.00;167441.72;4985018;28;20031;-61
2022/07/13 08:11:21;;;;;;;8.40;5.85;;;;;;;26.59;100.00;167535.63;4975109;28;20050;-60
2022/07/13 08:13:47;;;;;;;6.38;4.93;;;;;;;26.91;100.00;167620.09;4985474;28;20030;-61
2022/07/13 08:16:14;;;;;;;15.13;6.30;;;;;;;26.94;100.00;167628.28;4992901;28;20097;-61
2022/07/13 08:18:39;;;;;;;11.20;5.90;;;;;;;27.43;100.00;167756.34;4993245;28;20022;-61
2022/07/13 08:21:05;;;;;;;11.23;5.63;;;;;;;27.91;100.00;167883.03;4986328;28;20379;-60
2022/07/13 08:26:14;;;;;;;7.47;5.38;;;;;;;28.50;100.00;168041.13;4973304;28;20030;-60
2022/07/13 08:28:39;;;;;;;8.05;5.55;;;;;;;29.11;100.00;168200.66;4973306;28;20050;-60
2022/07/13 08:31:05;;;;;;;4.65;3.97;;;;;;;29.41;100.00;168279.78;4973026;28;20034;-61
2022/07/13 08:38:58;;;;;;;12.20;5.70;;;;;;;29.52;100.00;168308.41;4979362;28;20041;-61
2022/07/13 08:41:24;;;;;;;9.65;5.03;;;;;;;29.43;100.00;168286.56;4989570;28;20394;-61
2022/07/13 08:43:49;;;;;;;6.30;5.65;;;;;;;29.16;100.00;168214.28;4993397;28;20025;-61
2022/07/13 08:46:15;;;;;;;6.22;4.20;;;;;;;28.96;100.00;168161.09;4998054;28;20027;-61
2022/07/13 08:48:43;;;;;;;9.25;4.78;;;;;;;28.76;100.00;168109.34;4976706;28;20473;-61
2022/07/13 08:51:09;;;;;;;8.10;4.03;;;;;;;28.70;100.00;168093.00;4991553;28;20030;-61
2022/07/13 08:53:34;;;;;;;8.23;4.88;;;;;;;28.66;100.00;168082.00;4981794;28;20084;-61
2022/07/13 08:56:01;;;;;;;8.23;4.78;;;;;;;28.62;100.00;168071.13;4982696;28;20060;-61
2022/07/13 08:58:27;;;;;;;9.88;5.95;;;;;;;28.63;100.00;168073.88;4984291;28;20185;-60
2022/07/13 09:00:52;;;;;;;17.73;7.57;;;;;;;28.83;100.00;168125.69;4990570;28;20472;-61
2022/07/13 09:03:17;;;;;;;9.50;6.18;;;;;;;28.91;100.00;168147.50;4992012;28;20077;-61
2022/07/13 09:05:43;;;;;;;6.68;5.40;;;;;;;29.17;100.00;168215.63;4992166;28;20065;-61
2022/07/13 09:08:10;;;;;;;9.68;5.78;;;;;;;29.33;100.00;168259.28;4985431;28;20191;-61
2022/07/13 09:10:57;;;;;;;6.05;5.45;;;;;;;29.82;100.00;168387.47;4972650;28;20398;-61
2022/07/13 09:13:55;;;;;;;12.45;5.40;;;;;;;29.73;100.00;168365.66;4972564;28;20023;-61
2022/07/13 09:16:23;;;;;;;6.93;5.38;;;;;;;29.98;100.00;168429.78;4971986;28;20050;-60
2022/07/13 09:18:57;;;;;;;8.23;4.97;;;;;;;29.79;100.00;168379.28;4972602;28;20054;-61
2022/07/13 09:21:24;;;;;;;10.10;4.90;;;;;;;29.71;100.00;168358.84;4972213;28;20034;-61
2022/07/13 09:24:01;;;;;;;8.55;6.07;;;;;;;29.62;100.00;168335.63;4973477;28;20034;-61
2022/07/13 09:26:40;;;;;;;9.30;4.70;;;;;;;29.78;100.00;168376.53;4972423;28;20038;-61
2022/07/13 09:29:05;;;;;;;58.30;11.05;;;;;;;29.72;100.00;168361.53;4971961;28;20442;-61
2022/07/13 09:31:47;;;;;;;7.68;4.63;;;;;;;29.82;100.00;168387.47;4978055;28;20084;-61
2022/07/13 09:34:14;;;;;;;9.27;3.55;;;;;;;29.83;100.00;168390.16;4990120;28;20049;-61
2022/07/13 09:36:39;;;;;;;6.30;3.17;;;;;;;29.94;100.00;168418.84;4991673;28;20077;-58
2022/07/13 09:39:09;;;;;;;6.43;3.35;;;;;;;30.04;100.00;168447.53;4988948;28;20022;-59
2022/07/13 09:41:35;;;;;;;5.38;4.13;;;;;;;30.23;100.00;168496.59;4985168;28;20106;-58
2022/07/13 09:47:00;;;;;;;8.57;4.03;;;;;;;30.29;100.00;168512.94;4984228;28;20037;-59
2022/07/13 09:49:31;;;;;;;4.95;3.50;;;;;;;30.22;100.00;168493.84;4990841;28;20041;-59
2022/07/13 09:51:57;;;;;;;9.18;3.97;;;;;;;30.20;100.00;168488.38;4991328;28;20022;-59
2022/07/13 09:54:29;;;;;;;4.70;4.00;;;;;;;30.05;100.00;168450.19;4986239;28;20062;-58
2022/07/13 09:56:58;;;;;;;14.32;5.88;;;;;;;29.88;100.00;168403.81;4976439;28;20516;-58
2022/07/13 09:59:25;;;;;;;9.40;4.35;;;;;;;29.58;100.00;168326.09;4975228;28;20398;-58
2022/07/13 10:01:51;;;;;;;4.40;3.28;;;;;;;29.58;100.00;168324.75;4990803;28;20382;-61
2022/07/13 10:04:17;;;;;;;7.40;4.45;;;;;;;29.43;100.00;168286.56;4991129;28;20023;-61
2022/07/13 10:06:42;;;;;;;13.63;4.13;;;;;;;29.48;100.00;168298.84;4978548;28;20038;-61
2022/07/13 10:09:09;;;;;;;8.48;3.38;;;;;;;29.59;100.00;168327.47;4982308;28;20030;-61
2022/07/13 10:11:34;;;;;;;4.80;3.58;;;;;;;29.68;100.00;168350.66;4991404;28;20034;-61
2022/07/13 10:13:59;;;;;;;8.50;3.75;;;;;;;29.51;100.00;168307.00;4977652;28;20024;-61
2022/07/13 10:16:29;;;;;;;8.48;3.88;;;;;;;29.69;100.00;168354.72;4983652;28;20030;-60
2022/07/13 10:18:57;;;;;;;6.07;3.90;;;;;;;29.84;100.00;168392.88;4991071;28;20086;-61
2022/07/13 10:21:47;;;;;;;14.60;4.10;;;;;;;30.16;100.00;168477.50;4991031;28;20101;-60
2022/07/13 10:24:16;;;;;;;7.57;3.58;;;;;;;30.48;100.00;168562.06;4989558;28;20035;-61
2022/07/13 10:26:42;;;;;;;6.22;3.63;;;;;;;30.55;100.00;168581.19;4982096;28;20027;-61
2022/07/13 10:29:12;;;;;;;8.75;3.20;;;;;;;30.51;100.00;168570.25;4970712;28;20565;-62
2022/07/13 10:31:40;;;;;;;9.68;4.00;;;;;;;30.35;100.00;168529.28;4983511;28;20512;-61
2022/07/13 10:34:07;;;;;;;10.60;4.85;;;;;;;30.59;100.00;168592.09;4990741;28;20034;-61
2022/07/13 10:36:52;;;;;;;8.77;4.05;;;;;;;30.75;100.00;168633.00;4975014;28;20043;-61
2022/07/13 10:39:23;;;;;;;5.13;3.15;;;;;;;30.36;100.00;168532.03;4971471;28;20090;-61
2022/07/13 10:42:10;;;;;;;12.13;3.90;;;;;;;30.52;100.00;168574.41;4981973;28;20317;-61
2022/07/13 10:44:42;;;;;;;16.07;5.37;;;;;;;30.66;100.00;168611.19;4993740;28;20022;-60
2022/07/13 10:47:12;;;;;;;7.45;3.17;;;;;;;30.50;100.00;168567.47;4994853;28;20033;-61
2022/07/13 10:49:48;;;;;;;10.10;3.22;;;;;;;30.17;100.00;168480.22;4994715;28;20049;-61
2022/07/13 10:52:20;;;;;;;5.18;3.55;;;;;;;30.01;100.00;168439.31;4994651;28;20447;-58
2022/07/13 10:55:05;;;;;;;5.93;3.70;;;;;;;30.05;100.00;168450.19;4994601;28;20947;-58
2022/07/13 10:57:34;;;;;;;9.10;3.08;;;;;;;29.76;100.00;168373.81;4992963;28;20670;-58
2022/07/13 11:00:04;;;;;;;3.40;3.10;;;;;;;29.65;100.00;168343.84;4994579;28;20030;-58
2022/07/13 11:03:01;;;;;;;3.78;3.45;;;;;;;29.96;100.00;168425.69;4994445;28;20397;-59
2022/07/13 11:05:29;;;;;;;4.78;3.33;;;;;;;30.33;100.00;168523.88;4994277;28;20101;-58
2022/07/13 11:07:54;;;;;;;4.75;3.38;;;;;;;30.89;100.00;168669.84;4994462;28;20026;-58
2022/07/13 11:10:32;;;;;;;4.75;3.72;;;;;;;31.11;98.28;168729.94;4992460;28;20037;-59
2022/07/13 11:13:09;;;;;;;3.47;3.17;;;;;;;31.71;97.75;168886.84;4990802;28;20022;-59
2022/07/13 11:15:56;;;;;;;7.80;4.38;;;;;;;31.37;89.44;168796.78;4975171;28;20398;-58
2022/07/13 11:18:22;;;;;;;3.97;3.67;;;;;;;31.50;89.84;168832.22;4981820;28;20038;-58
2022/07/13 11:20:57;;;;;;;3.60;3.30;;;;;;;31.83;89.49;168919.63;4989729;28;20117;-58
2022/07/13 11:26:34;;;;;;;5.95;3.05;;;;;;;31.90;80.70;168938.72;4974990;28;20434;-59
2022/07/13 11:29:18;;;;;;;7.25;3.25;;;;;;;31.91;81.96;168941.41;4974757;28;20521;-58